Time;durP1;ratioP1;P1;durP2;ratioP2;P2;SDS_P1;SDS_P2;PMS_P1;PMS_P2;Temp;Humidity;BMP_temperature;BMP_pressure;BME280_temperature;BME280_humidity;BME280_pressure;Samples;Min_cycle;Max_cycle;Signal;HPM_P1;HPM_P2
2023/08/15 00:01:12;;;;;;;7.45;4.50;;;21.50;99.90;;;;;;6211515;23;20001;-84
2023/08/15 00:03:37;;;;;;;6.40;4.82;;;21.50;99.90;;;;;;6211476;23;20027;-84
2023/08/15 00:06:03;;;;;;;8.15;5.07;;;21.50;99.90;;;;;;6211344;23;20028;-84
2023/08/15 00:08:28;;;;;;;5.60;4.13;;;21.50;99.90;;;;;;6211995;23;19997;-84
2023/08/15 00:10:54;;;;;;;5.85;3.80;;;21.50;99.90;;;;;;6211600;23;20008;-84
2023/08/15 00:13:20;;;;;;;5.22;3.92;;;21.40;99.90;;;;;;6210783;23;20001;-84
2023/08/15 00:15:45;;;;;;;7.45;4.07;;;21.40;99.90;;;;;;6211899;23;20000;-84
2023/08/15 00:18:11;;;;;;;7.22;4.55;;;21.40;99.90;;;;;;6211375;23;20380;-84
2023/08/15 00:20:36;;;;;;;6.22;4.65;;;21.30;99.90;;;;;;6211721;23;20005;-83
2023/08/15 00:23:02;;;;;;;9.32;4.85;;;21.30;99.90;;;;;;6211266;23;20132;-84
2023/08/15 00:25:28;;;;;;;6.72;5.45;;;21.40;99.90;;;;;;6211462;23;20450;-84
2023/08/15 00:27:53;;;;;;;6.13;4.25;;;21.30;99.90;;;;;;6210992;23;20001;-84
2023/08/15 00:30:19;;;;;;;7.75;5.20;;;21.30;99.90;;;;;;6210924;23;20004;-84
2023/08/15 00:32:46;;;;;;;7.53;5.38;;;21.30;99.90;;;;;;6211578;23;19997;-84
2023/08/15 00:35:11;;;;;;;7.32;4.70;;;21.30;99.90;;;;;;6211290;23;20028;-83
2023/08/15 00:37:37;;;;;;;4.70;4.10;;;21.30;99.90;;;;;;6184529;23;20334;-84
2023/08/15 00:40:04;;;;;;;7.03;5.13;;;21.30;99.90;;;;;;6211164;23;20092;-84
2023/08/15 00:42:29;;;;;;;10.45;5.32;;;21.30;99.90;;;;;;6210785;23;19997;-84
2023/08/15 00:44:56;;;;;;;7.55;4.80;;;21.30;99.90;;;;;;6211011;23;20016;-84
2023/08/15 00:47:21;;;;;;;8.27;5.28;;;21.30;99.90;;;;;;6210927;23;20080;-84
2023/08/15 00:49:47;;;;;;;6.47;4.97;;;21.30;99.90;;;;;;6210991;23;20020;-84
2023/08/15 00:52:16;;;;;;;4.82;4.10;;;21.30;99.90;;;;;;6184260;23;20001;-84
2023/08/15 00:54:45;;;;;;;7.13;4.75;;;21.30;99.90;;;;;;6210447;23;20498;-83
2023/08/15 00:57:11;;;;;;;7.85;5.65;;;21.20;99.90;;;;;;6183751;23;20063;-83
2023/08/15 00:59:37;;;;;;;8.55;5.25;;;21.20;99.90;;;;;;6210991;23;20005;-83
2023/08/15 01:02:03;;;;;;;7.97;4.45;;;21.20;99.90;;;;;;6210801;23;19996;-84
2023/08/15 01:04:30;;;;;;;10.65;5.50;;;21.20;99.90;;;;;;6184071;23;20078;-84
2023/08/15 01:06:55;;;;;;;7.90;4.65;;;21.10;99.90;;;;;;6184493;23;20565;-83
2023/08/15 01:09:21;;;;;;;11.35;5.45;;;21.10;99.90;;;;;;6183895;23;20015;-83
2023/08/15 01:12:10;;;;;;;6.10;5.05;;;21.10;99.90;;;;;;6210539;23;20426;-83
2023/08/15 01:14:57;;;;;;;5.32;4.25;;;21.10;99.90;;;;;;6210826;23;20004;-84
2023/08/15 01:17:33;;;;;;;7.13;4.53;;;21.10;99.90;;;;;;6210272;23;20004;-83
2023/08/15 01:20:02;;;;;;;6.40;4.85;;;21.10;99.90;;;;;;6211032;23;19997;-84
2023/08/15 01:22:28;;;;;;;5.32;4.82;;;21.00;99.90;;;;;;6210486;23;20427;-84
2023/08/15 01:24:54;;;;;;;5.90;4.80;;;21.00;99.90;;;;;;6210823;23;20076;-83
2023/08/15 01:27:20;;;;;;;6.95;5.45;;;21.00;99.90;;;;;;6209761;23;20028;-83
2023/08/15 01:29:46;;;;;;;7.38;5.13;;;21.00;99.90;;;;;;6184258;23;20015;-84
2023/08/15 01:32:23;;;;;;;6.22;4.65;;;21.00;99.90;;;;;;6210745;23;20016;-84
2023/08/15 01:35:02;;;;;;;6.95;4.93;;;21.10;99.90;;;;;;6211043;23;20012;-83
2023/08/15 01:37:30;;;;;;;5.32;4.72;;;21.10;99.90;;;;;;6210573;23;20020;-84
2023/08/15 01:39:57;;;;;;;6.70;4.03;;;21.10;99.90;;;;;;6210417;23;20007;-84
2023/08/15 01:42:25;;;;;;;6.63;5.13;;;21.10;99.90;;;;;;6210082;23;20000;-83
2023/08/15 01:44:53;;;;;;;7.88;5.38;;;21.10;99.90;;;;;;6210912;23;20011;-84
2023/08/15 01:47:20;;;;;;;5.10;4.60;;;21.10;99.90;;;;;;6183486;23;20529;-83
2023/08/15 01:49:45;;;;;;;17.67;4.35;;;21.10;99.90;;;;;;6210888;23;20005;-84
2023/08/15 01:52:11;;;;;;;7.40;4.90;;;21.10;99.90;;;;;;6210618;23;20007;-83
2023/08/15 01:54:36;;;;;;;6.50;5.00;;;21.10;99.90;;;;;;6209596;23;20084;-84
2023/08/15 01:57:02;;;;;;;7.35;5.65;;;21.10;99.90;;;;;;6210527;23;20003;-83
2023/08/15 01:59:28;;;;;;;8.85;6.53;;;21.20;99.90;;;;;;6211939;23;19997;-84
2023/08/15 02:01:53;;;;;;;6.70;5.40;;;21.20;99.90;;;;;;6211251;23;20008;-84
2023/08/15 02:04:19;;;;;;;7.90;6.43;;;21.20;99.90;;;;;;6183385;23;20012;-84
2023/08/15 02:06:44;;;;;;;8.43;6.45;;;21.30;99.90;;;;;;6209312;23;20008;-83
2023/08/15 02:09:10;;;;;;;7.47;6.22;;;21.30;99.90;;;;;;6207010;23;20063;-83
2023/08/15 02:11:36;;;;;;;8.25;6.25;;;21.30;99.90;;;;;;6208568;23;20008;-83
2023/08/15 02:14:01;;;;;;;7.78;6.85;;;21.30;99.90;;;;;;6209495;23;20055;-84
2023/08/15 02:16:27;;;;;;;9.05;6.13;;;21.30;99.90;;;;;;6209381;23;20005;-83
2023/08/15 02:18:52;;;;;;;10.40;6.07;;;21.30;99.90;;;;;;6183161;23;20015;-83
2023/08/15 02:21:18;;;;;;;10.57;6.15;;;21.30;99.90;;;;;;6209397;23;20509;-83
2023/08/15 02:23:43;;;;;;;9.80;6.90;;;21.30;99.90;;;;;;6208263;23;20005;-84
2023/08/15 02:26:09;;;;;;;10.60;6.10;;;21.30;99.90;;;;;;6209983;23;20001;-83
2023/08/15 02:28:34;;;;;;;10.55;6.65;;;21.30;99.90;;;;;;6209846;23;20005;-84
2023/08/15 02:31:04;;;;;;;12.75;6.28;;;21.20;99.90;;;;;;6210523;23;20031;-84
2023/08/15 02:33:30;;;;;;;12.80;7.00;;;21.20;99.90;;;;;;6210523;23;20001;-84
2023/08/15 02:35:55;;;;;;;9.50;6.50;;;21.20;99.90;;;;;;6210782;23;20009;-84
2023/08/15 02:38:21;;;;;;;10.43;6.68;;;21.20;99.90;;;;;;6209310;23;20083;-84
2023/08/15 02:40:48;;;;;;;9.75;6.20;;;21.20;99.90;;;;;;6183861;23;20004;-84
2023/08/15 02:43:13;;;;;;;12.27;6.65;;;21.20;99.90;;;;;;6210133;23;20008;-83
2023/08/15 02:45:39;;;;;;;13.45;6.65;;;21.20;99.90;;;;;;6210118;23;20005;-83
2023/08/15 02:48:05;;;;;;;9.73;6.50;;;21.20;99.90;;;;;;6209547;23;20068;-84
2023/08/15 02:50:30;;;;;;;8.90;6.82;;;21.10;99.90;;;;;;6210289;23;19997;-83
2023/08/15 02:52:56;;;;;;;10.07;6.63;;;21.10;99.90;;;;;;6209675;23;20000;-84
2023/08/15 02:55:21;;;;;;;7.47;5.93;;;21.10;99.90;;;;;;6209510;23;20020;-83
2023/08/15 02:57:47;;;;;;;11.63;6.72;;;21.00;99.90;;;;;;6210383;23;20001;-84
2023/08/15 03:00:14;;;;;;;9.13;6.60;;;21.00;99.90;;;;;;6209924;23;20556;-83
2023/08/15 03:02:40;;;;;;;7.88;6.78;;;20.90;99.90;;;;;;6183767;23;20001;-83
2023/08/15 03:05:06;;;;;;;10.80;6.47;;;20.90;99.90;;;;;;6210174;23;20020;-84
2023/08/15 03:07:31;;;;;;;9.73;6.25;;;20.90;99.90;;;;;;6209557;23;20001;-84
2023/08/15 03:09:57;;;;;;;12.77;7.10;;;20.90;99.90;;;;;;6210530;23;20484;-85
2023/08/15 03:12:23;;;;;;;8.98;6.53;;;20.80;99.90;;;;;;6210018;23;20868;-84
2023/08/15 03:14:49;;;;;;;7.18;4.95;;;20.80;99.90;;;;;;6211686;23;20005;-85
2023/08/15 03:17:14;;;;;;;8.77;5.45;;;20.70;99.90;;;;;;6211666;23;20005;-84
2023/08/15 03:19:40;;;;;;;10.40;5.53;;;20.70;99.90;;;;;;6212144;23;20378;-84
2023/08/15 03:22:08;;;;;;;8.43;4.97;;;20.70;99.90;;;;;;6211437;23;20001;-85
2023/08/15 03:24:33;;;;;;;8.15;4.80;;;20.70;99.90;;;;;;6185346;23;20062;-84
2023/08/15 03:26:59;;;;;;;6.40;5.25;;;20.60;99.90;;;;;;6185567;23;20031;-84
2023/08/15 03:29:25;;;;;;;8.15;4.63;;;20.60;99.90;;;;;;6211778;23;20043;-84
2023/08/15 03:31:55;;;;;;;8.43;5.50;;;20.60;99.90;;;;;;6211764;23;20058;-84
2023/08/15 03:34:21;;;;;;;7.80;5.15;;;20.60;99.90;;;;;;6211784;23;20000;-84
2023/08/15 03:36:47;;;;;;;5.82;4.63;;;20.50;99.90;;;;;;6211629;23;20381;-85
2023/08/15 03:39:12;;;;;;;8.27;5.57;;;20.50;99.90;;;;;;6211716;23;20059;-84
2023/08/15 03:41:38;;;;;;;8.63;5.38;;;20.50;99.90;;;;;;6211685;23;20446;-84
2023/08/15 03:44:04;;;;;;;7.20;5.53;;;20.40;99.90;;;;;;6211862;23;20008;-84
2023/08/15 03:46:29;;;;;;;8.45;5.32;;;20.40;99.90;;;;;;6211400;23;20032;-84
2023/08/15 03:48:55;;;;;;;7.55;4.93;;;20.40;99.90;;;;;;6211925;23;20052;-84
2023/08/15 03:51:20;;;;;;;9.65;5.18;;;20.30;99.90;;;;;;6210474;23;20020;-83
2023/08/15 03:53:46;;;;;;;8.32;5.55;;;20.30;99.90;;;;;;6185346;23;20046;-83
2023/08/15 03:56:11;;;;;;;8.77;4.85;;;20.30;99.90;;;;;;6211284;23;20012;-84
2023/08/15 03:58:37;;;;;;;10.43;5.55;;;20.20;99.90;;;;;;6211543;23;20059;-84
2023/08/15 04:01:03;;;;;;;9.18;6.22;;;20.20;99.90;;;;;;6211499;23;20038;-84
2023/08/15 04:03:28;;;;;;;9.32;6.20;;;20.10;99.90;;;;;;6211178;23;20001;-83
2023/08/15 04:05:54;;;;;;;6.10;5.32;;;20.10;99.90;;;;;;6211162;23;20008;-84
2023/08/15 04:08:19;;;;;;;9.82;5.57;;;20.00;99.90;;;;;;6211124;23;19997;-83
2023/08/15 04:10:46;;;;;;;8.27;5.35;;;20.00;99.90;;;;;;6212058;23;20071;-84
2023/08/15 04:13:12;;;;;;;6.50;4.85;;;19.90;99.90;;;;;;6211832;23;20003;-84
2023/08/15 04:15:38;;;;;;;10.07;5.95;;;19.80;99.90;;;;;;6211766;23;20084;-84
2023/08/15 04:18:05;;;;;;;6.68;4.60;;;19.80;99.90;;;;;;6212015;23;20048;-83
2023/08/15 04:20:31;;;;;;;9.50;6.07;;;19.70;99.90;;;;;;6211842;23;20003;-83
2023/08/15 04:22:57;;;;;;;8.10;5.82;;;19.70;99.90;;;;;;6214031;23;19997;-84
2023/08/15 04:25:22;;;;;;;6.80;4.97;;;19.60;99.90;;;;;;6211740;23;20040;-85
2023/08/15 04:27:48;;;;;;;9.23;4.82;;;19.60;99.90;;;;;;6212700;23;20072;-84
2023/08/15 04:30:14;;;;;;;9.80;5.20;;;19.50;99.90;;;;;;6212012;23;20004;-84
2023/08/15 04:32:39;;;;;;;7.93;5.15;;;19.50;99.90;;;;;;6211504;23;20063;-84
2023/08/15 04:35:05;;;;;;;7.03;4.57;;;19.50;99.90;;;;;;6210789;23;20005;-83
2023/08/15 04:37:31;;;;;;;8.43;4.30;;;19.40;99.90;;;;;;6211320;23;20007;-84
2023/08/15 04:39:56;;;;;;;8.27;4.15;;;19.40;99.90;;;;;;6211596;23;20075;-83
2023/08/15 04:42:22;;;;;;;7.60;4.30;;;19.40;99.90;;;;;;6210668;23;19996;-84
2023/08/15 04:44:47;;;;;;;9.63;3.60;;;19.30;99.90;;;;;;6211213;23;20001;-84
2023/08/15 04:47:15;;;;;;;7.82;3.83;;;19.30;99.90;;;;;;6210992;23;20498;-83
2023/08/15 04:49:41;;;;;;;6.97;4.22;;;19.30;99.90;;;;;;6210758;23;19996;-84
2023/08/15 04:52:06;;;;;;;9.57;4.47;;;19.30;99.90;;;;;;6211324;23;20004;-83
2023/08/15 04:54:32;;;;;;;7.05;3.97;;;19.20;99.90;;;;;;6210751;23;20426;-83
2023/08/15 04:56:57;;;;;;;8.45;4.20;;;19.20;99.90;;;;;;6211347;23;20071;-84
2023/08/15 04:59:23;;;;;;;8.07;4.15;;;19.20;99.90;;;;;;6183988;23;20001;-84
2023/08/15 05:01:49;;;;;;;9.82;4.68;;;19.20;99.90;;;;;;6211382;23;20067;-84
2023/08/15 05:04:14;;;;;;;7.20;4.38;;;19.20;99.90;;;;;;6210114;23;20024;-84
2023/08/15 05:06:40;;;;;;;7.20;4.07;;;19.20;99.90;;;;;;6210045;23;20004;-83
2023/08/15 05:09:05;;;;;;;9.57;4.47;;;19.20;99.90;;;;;;6209877;23;20000;-83
2023/08/15 05:11:31;;;;;;;10.30;4.43;;;19.10;99.90;;;;;;6182936;23;20062;-83
2023/08/15 05:13:59;;;;;;;7.43;3.78;;;19.20;99.90;;;;;;6209373;23;20005;-84
2023/08/15 05:16:24;;;;;;;11.27;4.05;;;19.20;99.90;;;;;;6208919;23;20430;-83
2023/08/15 05:18:50;;;;;;;8.60;4.55;;;19.10;99.90;;;;;;6182202;23;20009;-76
2023/08/15 05:21:15;;;;;;;5.45;4.40;;;19.10;99.90;;;;;;6208551;23;20001;-74
2023/08/15 05:23:41;;;;;;;15.02;6.03;;;19.10;99.90;;;;;;6209129;23;20466;-74
2023/08/15 05:26:07;;;;;;;10.68;4.95;;;19.10;99.90;;;;;;6209247;23;20055;-74
2023/08/15 05:28:32;;;;;;;7.55;4.53;;;19.00;99.90;;;;;;6210753;23;20008;-74
2023/08/15 05:30:58;;;;;;;8.27;4.28;;;19.10;99.90;;;;;;6209081;23;20011;-74
2023/08/15 05:33:23;;;;;;;6.72;4.22;;;19.10;99.90;;;;;;6182653;23;20020;-74
2023/08/15 05:35:49;;;;;;;9.95;4.88;;;19.10;99.90;;;;;;6210784;23;20005;-74
2023/08/15 05:38:14;;;;;;;8.80;3.85;;;19.10;99.90;;;;;;6210329;23;20004;-74
2023/08/15 05:40:40;;;;;;;9.20;4.47;;;19.10;99.90;;;;;;6210759;23;20461;-74
2023/08/15 05:43:06;;;;;;;13.60;5.32;;;19.10;99.90;;;;;;6210588;23;20032;-74
2023/08/15 05:45:32;;;;;;;11.68;4.60;;;19.20;99.90;;;;;;6210535;23;20059;-75
2023/08/15 05:47:58;;;;;;;6.72;4.38;;;19.20;99.90;;;;;;6210535;23;19997;-74
2023/08/15 05:50:23;;;;;;;7.88;4.57;;;19.20;99.90;;;;;;6210160;23;20133;-74
2023/08/15 05:52:50;;;;;;;9.98;5.63;;;19.30;99.90;;;;;;6210720;23;20028;-74
2023/08/15 05:55:15;;;;;;;8.13;4.68;;;19.30;99.90;;;;;;6209938;23;20020;-74
2023/08/15 05:57:41;;;;;;;8.00;4.78;;;19.30;99.90;;;;;;6210573;23;20012;-74
2023/08/15 06:00:08;;;;;;;7.95;4.88;;;19.40;99.90;;;;;;6209965;23;20008;-74
2023/08/15 06:02:36;;;;;;;9.80;5.40;;;19.40;99.90;;;;;;6209988;23;20009;-74
2023/08/15 06:05:02;;;;;;;9.23;4.70;;;19.40;99.90;;;;;;6210044;23;20004;-74
2023/08/15 06:07:28;;;;;;;9.27;4.40;;;19.50;99.90;;;;;;6210645;23;20027;-74
2023/08/15 06:09:54;;;;;;;9.57;5.07;;;19.50;99.90;;;;;;6210648;23;20328;-74
2023/08/15 06:12:19;;;;;;;6.28;4.53;;;19.50;99.90;;;;;;6209978;23;20004;-74
2023/08/15 06:14:45;;;;;;;9.32;5.75;;;19.60;99.90;;;;;;6210447;23;20001;-74
2023/08/15 06:17:12;;;;;;;8.90;5.05;;;19.60;99.90;;;;;;6209838;23;20426;-74
2023/08/15 06:19:38;;;;;;;8.52;5.47;;;19.70;99.90;;;;;;6210300;23;20008;-74
2023/08/15 06:22:04;;;;;;;10.85;5.90;;;19.70;99.90;;;;;;6210606;23;20323;-74
2023/08/15 06:24:29;;;;;;;10.18;5.43;;;19.70;99.90;;;;;;6210206;23;20004;-74
2023/08/15 06:26:55;;;;;;;9.02;5.28;;;19.70;99.90;;;;;;6210543;23;20005;-73
2023/08/15 06:29:20;;;;;;;8.48;5.32;;;19.80;99.90;;;;;;6209813;23;20000;-74
2023/08/15 06:31:46;;;;;;;12.15;5.53;;;19.80;99.90;;;;;;6209991;23;20001;-74
2023/08/15 06:34:11;;;;;;;9.00;5.65;;;19.80;99.90;;;;;;6210425;23;19997;-74
2023/08/15 06:36:37;;;;;;;8.45;4.78;;;19.80;99.90;;;;;;6210817;23;20004;-74
2023/08/15 06:39:03;;;;;;;8.40;4.65;;;19.90;99.90;;;;;;6210072;23;20009;-74
2023/08/15 06:41:30;;;;;;;9.68;5.28;;;19.90;99.90;;;;;;6210219;23;20011;-74
2023/08/15 06:43:55;;;;;;;7.38;5.55;;;19.90;99.90;;;;;;6210505;23;20009;-74
2023/08/15 06:46:21;;;;;;;10.88;5.57;;;20.00;99.90;;;;;;6209129;23;20020;-73
2023/08/15 06:48:46;;;;;;;7.85;5.25;;;20.10;99.90;;;;;;6211648;23;20000;-74
2023/08/15 06:51:12;;;;;;;11.43;5.63;;;20.10;99.90;;;;;;6211889;23;20005;-73
2023/08/15 06:53:41;;;;;;;10.95;6.20;;;20.10;99.90;;;;;;6185215;23;20035;-74
2023/08/15 06:56:07;;;;;;;11.90;5.28;;;20.20;99.90;;;;;;6211755;23;20473;-74
2023/08/15 06:58:32;;;;;;;8.75;5.53;;;20.20;99.90;;;;;;6211881;23;19997;-74
2023/08/15 07:00:58;;;;;;;10.55;6.57;;;20.30;99.90;;;;;;6210534;23;20397;-74
2023/08/15 07:03:23;;;;;;;11.48;5.72;;;20.30;99.90;;;;;;6210914;23;20008;-74
2023/08/15 07:05:49;;;;;;;13.25;6.03;;;20.40;99.90;;;;;;6210833;23;20004;-73
2023/08/15 07:08:15;;;;;;;9.85;5.85;;;20.40;99.90;;;;;;6211439;23;20008;-73
2023/08/15 07:10:40;;;;;;;12.38;6.13;;;20.50;99.90;;;;;;6211408;23;19997;-74
2023/08/15 07:13:06;;;;;;;8.90;5.18;;;20.50;99.90;;;;;;6211600;23;20004;-74
2023/08/15 07:15:32;;;;;;;9.68;5.00;;;20.60;99.90;;;;;;6210527;23;20366;-74
2023/08/15 07:17:58;;;;;;;13.52;5.78;;;20.70;99.90;;;;;;6212140;23;20609;-74
2023/08/15 07:20:24;;;;;;;10.00;5.03;;;20.70;99.90;;;;;;6210756;23;20030;-74
2023/08/15 07:22:50;;;;;;;11.65;5.90;;;20.90;99.90;;;;;;6211212;23;20407;-74
2023/08/15 07:25:15;;;;;;;8.45;5.10;;;20.90;99.90;;;;;;6211026;23;20011;-74
2023/08/15 07:27:41;;;;;;;13.20;5.35;;;21.00;99.90;;;;;;6211244;23;20149;-74
2023/08/15 07:30:07;;;;;;;8.25;4.35;;;21.10;99.90;;;;;;6210914;23;20051;-73
2023/08/15 07:32:36;;;;;;;10.98;4.82;;;21.10;99.90;;;;;;6211235;23;20004;-74
2023/08/15 07:35:03;;;;;;;12.43;5.72;;;21.20;99.90;;;;;;6211742;23;20001;-74
2023/08/15 07:37:29;;;;;;;13.73;5.65;;;21.20;99.90;;;;;;6211209;23;20012;-74
2023/08/15 07:40:05;;;;;;;10.95;5.70;;;21.30;99.90;;;;;;6211392;23;20032;-74
2023/08/15 07:42:31;;;;;;;8.45;4.45;;;21.40;99.90;;;;;;6210841;23;20431;-74
2023/08/15 07:44:57;;;;;;;10.88;5.22;;;21.50;99.90;;;;;;6211428;23;20003;-74
2023/08/15 07:47:23;;;;;;;10.18;5.10;;;21.60;99.90;;;;;;6210242;23;20584;-74
2023/08/15 07:49:48;;;;;;;6.38;4.65;;;21.60;99.90;;;;;;6211406;23;20382;-74
2023/08/15 07:52:14;;;;;;;9.93;3.90;;;21.70;99.90;;;;;;6210681;23;20080;-75
2023/08/15 07:54:42;;;;;;;10.88;4.40;;;21.80;99.90;;;;;;6211050;23;20008;-74
2023/08/15 07:57:08;;;;;;;12.00;4.15;;;21.90;99.90;;;;;;6210299;23;19997;-74
2023/08/15 07:59:33;;;;;;;11.50;4.28;;;22.10;99.90;;;;;;6209952;23;20005;-74
2023/08/15 08:01:59;;;;;;;10.20;4.15;;;22.20;99.90;;;;;;6211095;23;20502;-74
2023/08/15 08:04:25;;;;;;;8.98;3.90;;;22.20;99.90;;;;;;6209134;23;20151;-73
2023/08/15 08:06:50;;;;;;;8.40;3.95;;;22.30;99.90;;;;;;6210832;23;20016;-73
2023/08/15 08:09:16;;;;;;;9.02;3.60;;;22.30;99.90;;;;;;6210397;23;19997;-74
2023/08/15 08:11:41;;;;;;;10.73;3.65;;;22.40;99.90;;;;;;6210870;23;20001;-74
2023/08/15 08:14:07;;;;;;;9.75;3.83;;;22.40;99.90;;;;;;6184403;23;20012;-74
2023/08/15 08:16:33;;;;;;;8.88;3.13;;;22.50;99.90;;;;;;6211279;23;20062;-74
2023/08/15 08:18:58;;;;;;;5.28;2.72;;;22.60;99.90;;;;;;6211442;23;20448;-74
2023/08/15 08:21:24;;;;;;;6.20;2.88;;;22.70;99.90;;;;;;6210664;23;20059;-74
2023/08/15 08:23:50;;;;;;;10.25;3.15;;;22.90;99.90;;;;;;6210559;23;20106;-74
2023/08/15 08:26:15;;;;;;;6.45;2.42;;;23.20;99.90;;;;;;6209740;23;20357;-74
2023/08/15 08:28:41;;;;;;;8.13;3.20;;;23.40;99.90;;;;;;6210877;23;20004;-74
2023/08/15 08:31:07;;;;;;;8.35;3.45;;;23.70;99.90;;;;;;6210612;23;20422;-74
2023/08/15 08:33:32;;;;;;;8.45;3.15;;;23.90;99.90;;;;;;6210919;23;19997;-74
2023/08/15 08:35:58;;;;;;;6.13;3.40;;;24.10;99.90;;;;;;6211020;23;21023;-74
2023/08/15 08:38:23;;;;;;;9.07;3.40;;;24.30;99.90;;;;;;6210263;23;20009;-74
2023/08/15 08:40:49;;;;;;;4.75;2.58;;;24.40;99.70;;;;;;6210613;23;20039;-74
2023/08/15 08:43:18;;;;;;;7.30;2.78;;;24.40;99.60;;;;;;6210462;23;20077;-73
2023/08/15 08:45:50;;;;;;;5.00;2.28;;;24.40;99.50;;;;;;6210593;23;20012;-74
2023/08/15 08:48:17;;;;;;;4.65;2.72;;;24.50;99.70;;;;;;6209964;23;20068;-73
2023/08/15 08:50:47;;;;;;;6.00;1.75;;;24.50;99.40;;;;;;6183946;23;20000;-74
2023/08/15 08:53:13;;;;;;;6.47;1.80;;;24.50;99.00;;;;;;6210661;23;20001;-74
2023/08/15 08:55:39;;;;;;;4.70;2.00;;;24.30;98.70;;;;;;6209514;23;20027;-74
2023/08/15 08:58:09;;;;;;;6.57;2.45;;;24.20;98.70;;;;;;6210106;23;20005;-74
2023/08/15 09:00:34;;;;;;;7.65;2.40;;;24.10;98.80;;;;;;6209878;23;20019;-73
2023/08/15 09:03:00;;;;;;;8.13;2.47;;;24.00;98.90;;;;;;6211129;23;20319;-73
2023/08/15 09:05:27;;;;;;;8.35;2.72;;;23.90;99.10;;;;;;6209372;23;20415;-74
2023/08/15 09:07:52;;;;;;;6.32;2.80;;;23.80;99.20;;;;;;6210832;23;20000;-74
2023/08/15 09:10:21;;;;;;;6.85;3.10;;;23.80;99.20;;;;;;6209215;23;20008;-73
2023/08/15 09:12:47;;;;;;;6.82;2.58;;;23.70;99.30;;;;;;6210477;23;20071;-75
2023/08/15 09:15:13;;;;;;;6.88;2.60;;;23.70;99.40;;;;;;6209950;23;20000;-74
2023/08/15 09:17:39;;;;;;;6.05;2.20;;;23.70;99.20;;;;;;6210510;23;20001;-74
2023/08/15 09:20:09;;;;;;;6.10;2.15;;;23.60;99.20;;;;;;6210462;23;20005;-74
2023/08/15 09:22:36;;;;;;;10.23;2.63;;;23.60;99.10;;;;;;6210290;23;20008;-74
2023/08/15 09:25:04;;;;;;;5.07;1.73;;;23.70;99.20;;;;;;6182712;23;20419;-74
2023/08/15 09:27:29;;;;;;;5.72;1.92;;;23.70;99.10;;;;;;6209987;23;20365;-74
2023/08/15 09:29:55;;;;;;;10.10;2.35;;;23.80;98.90;;;;;;6210094;23;20090;-74
2023/08/15 09:32:21;;;;;;;6.53;2.10;;;23.80;98.80;;;;;;6209540;23;20000;-74
2023/08/15 09:34:47;;;;;;;5.07;2.47;;;23.90;98.80;;;;;;6209665;23;20071;-75
2023/08/15 09:37:13;;;;;;;4.55;2.40;;;23.80;98.70;;;;;;6210308;23;20016;-74
2023/08/15 09:39:39;;;;;;;6.75;2.92;;;23.90;98.70;;;;;;6209232;23;20068;-74
2023/08/15 09:42:05;;;;;;;5.70;2.95;;;24.00;98.70;;;;;;6183891;23;20004;-75
2023/08/15 09:44:33;;;;;;;7.95;2.58;;;24.20;98.60;;;;;;6210273;23;20000;-74
2023/08/15 09:47:00;;;;;;;10.30;3.60;;;24.30;98.40;;;;;;6210353;23;20005;-75
2023/08/15 09:49:30;;;;;;;9.10;3.55;;;24.30;98.00;;;;;;6209882;23;20060;-74
2023/08/15 09:51:59;;;;;;;9.27;3.60;;;24.30;97.90;;;;;;6210454;23;20005;-74
2023/08/15 09:54:27;;;;;;;9.07;3.08;;;24.40;97.80;;;;;;6208960;23;20044;-74
2023/08/15 09:56:53;;;;;;;7.18;3.47;;;24.50;97.70;;;;;;6184018;23;20362;-74
2023/08/15 09:59:19;;;;;;;8.98;4.05;;;24.70;97.70;;;;;;6209561;23;20072;-74
2023/08/15 10:01:46;;;;;;;5.60;3.03;;;24.90;97.50;;;;;;6208707;23;20021;-74
2023/08/15 10:04:12;;;;;;;6.75;3.33;;;25.00;97.10;;;;;;6209683;23;20359;-74
2023/08/15 10:06:41;;;;;;;9.45;4.28;;;25.20;97.00;;;;;;6209851;23;20005;-75
2023/08/15 10:09:09;;;;;;;7.68;3.25;;;25.30;96.80;;;;;;6183408;23;20008;-75
2023/08/15 10:11:39;;;;;;;7.82;3.75;;;25.50;96.70;;;;;;6208433;23;20012;-75
2023/08/15 10:14:06;;;;;;;8.90;4.30;;;25.60;96.60;;;;;;6209685;23;20076;-75
2023/08/15 10:16:32;;;;;;;5.40;3.55;;;25.70;96.20;;;;;;6209652;23;20024;-75
2023/08/15 10:18:57;;;;;;;5.07;3.00;;;25.70;96.00;;;;;;6210434;23;20431;-75
2023/08/15 10:21:26;;;;;;;8.10;3.63;;;25.70;96.00;;;;;;6208998;23;20001;-75
2023/08/15 10:23:52;;;;;;;7.80;3.47;;;25.70;96.00;;;;;;6211805;23;20008;-75
2023/08/15 10:26:18;;;;;;;8.07;3.90;;;25.70;95.80;;;;;;6211451;23;20001;-75
2023/08/15 10:28:45;;;;;;;8.52;3.92;;;25.70;95.90;;;;;;6212533;23;20009;-75
2023/08/15 10:31:11;;;;;;;6.45;4.18;;;25.70;96.00;;;;;;6212387;23;20005;-74
2023/08/15 10:33:37;;;;;;;7.35;4.00;;;25.80;96.00;;;;;;6212047;23;20001;-74
2023/08/15 10:36:02;;;;;;;7.18;4.28;;;25.80;95.80;;;;;;6212250;23;20012;-73
2023/08/15 10:38:30;;;;;;;6.90;3.75;;;25.70;95.60;;;;;;6211454;23;20055;-74
2023/08/15 10:41:06;;;;;;;8.07;3.90;;;25.60;95.60;;;;;;6185542;23;20005;-74
2023/08/15 10:43:33;;;;;;;6.53;3.60;;;25.50;95.80;;;;;;6185539;23;20333;-74
2023/08/15 10:46:06;;;;;;;7.28;3.33;;;25.50;95.80;;;;;;6212285;23;20075;-74
2023/08/15 10:48:42;;;;;;;8.68;3.58;;;25.40;95.80;;;;;;6212003;23;20023;-74
2023/08/15 10:51:25;;;;;;;8.07;3.10;;;25.40;95.60;;;;;;6211198;23;20478;-74
2023/08/15 10:53:55;;;;;;;5.93;3.00;;;25.30;95.60;;;;;;6212314;23;20031;-74
2023/08/15 10:56:32;;;;;;;4.78;2.70;;;25.20;95.50;;;;;;6210887;23;20338;-75
2023/08/15 10:58:59;;;;;;;8.02;3.75;;;25.20;95.50;;;;;;6185360;23;20059;-74
2023/08/15 11:01:30;;;;;;;9.52;3.50;;;25.20;95.70;;;;;;6210898;23;20058;-74
2023/08/15 11:03:57;;;;;;;10.20;3.45;;;25.20;95.50;;;;;;6185439;23;20423;-74
2023/08/15 11:06:23;;;;;;;6.68;3.35;;;25.20;95.50;;;;;;6210762;23;20015;-74
2023/08/15 11:08:55;;;;;;;7.60;3.70;;;25.30;95.60;;;;;;6211958;23;20307;-74
2023/08/15 11:11:21;;;;;;;9.43;3.63;;;25.40;95.40;;;;;;6211549;23;20000;-74
2023/08/15 11:13:49;;;;;;;9.57;3.53;;;25.60;95.40;;;;;;6211837;23;20080;-74
2023/08/15 11:16:17;;;;;;;6.13;2.83;;;25.80;95.20;;;;;;6211316;23;20047;-74
2023/08/15 11:18:44;;;;;;;6.55;3.63;;;26.00;95.00;;;;;;6211453;23;20000;-74
2023/08/15 11:21:11;;;;;;;6.15;3.78;;;26.20;94.80;;;;;;6211257;23;20004;-74
2023/08/15 11:23:38;;;;;;;8.88;3.85;;;26.30;94.50;;;;;;6208448;23;20497;-73
2023/08/15 11:26:11;;;;;;;5.35;3.30;;;26.40;94.20;;;;;;6208482;23;20005;-74
2023/08/15 11:28:38;;;;;;;8.85;3.13;;;26.50;94.20;;;;;;6207958;23;20009;-74
2023/08/15 11:31:07;;;;;;;8.60;4.35;;;26.50;94.10;;;;;;6208376;23;20004;-74
2023/08/15 11:33:33;;;;;;;8.50;4.10;;;26.60;93.90;;;;;;6207703;23;20005;-74
2023/08/15 11:36:03;;;;;;;8.75;4.55;;;26.70;93.80;;;;;;6207778;23;20019;-74
2023/08/15 11:38:30;;;;;;;7.65;3.63;;;26.80;93.70;;;;;;6207581;23;20099;-74
2023/08/15 11:40:57;;;;;;;7.03;3.83;;;26.90;93.30;;;;;;6207820;23;20493;-75
2023/08/15 11:43:23;;;;;;;7.53;4.53;;;26.90;93.00;;;;;;6207597;23;20386;-74
2023/08/15 11:45:49;;;;;;;7.68;4.07;;;26.90;93.00;;;;;;6208276;23;20004;-74
2023/08/15 11:48:14;;;;;;;6.43;3.70;;;26.80;92.80;;;;;;6207626;23;20342;-75
2023/08/15 11:50:43;;;;;;;5.95;4.53;;;26.60;92.80;;;;;;6207479;23;20008;-75
2023/08/15 11:53:10;;;;;;;7.45;4.45;;;26.40;93.10;;;;;;6207713;23;20011;-75
2023/08/15 11:55:36;;;;;;;10.32;4.63;;;26.40;93.20;;;;;;6206267;23;20040;-74
2023/08/15 11:58:03;;;;;;;8.70;5.70;;;26.30;93.10;;;;;;6207988;23;20445;-74
2023/08/15 12:00:29;;;;;;;7.05;4.50;;;26.30;93.10;;;;;;6207039;23;20012;-74
2023/08/15 12:02:55;;;;;;;8.05;5.65;;;26.30;93.00;;;;;;6207782;23;20012;-74
2023/08/15 12:05:21;;;;;;;6.13;4.95;;;26.30;92.90;;;;;;6206980;23;20092;-74
2023/08/15 12:07:49;;;;;;;9.85;4.85;;;26.40;93.10;;;;;;6207452;23;20053;-74
2023/08/15 12:10:16;;;;;;;9.82;4.53;;;26.40;93.10;;;;;;6207384;23;20013;-74
2023/08/15 12:12:46;;;;;;;5.43;4.45;;;26.50;93.00;;;;;;6207738;23;20426;-74
2023/08/15 12:15:14;;;;;;;9.15;5.25;;;26.50;93.10;;;;;;6207781;23;20004;-74
2023/08/15 12:17:40;;;;;;;6.15;5.38;;;26.50;93.10;;;;;;6207700;23;20005;-74
2023/08/15 12:20:11;;;;;;;5.85;4.05;;;26.60;93.00;;;;;;6206705;23;20614;-74
2023/08/15 12:22:39;;;;;;;9.57;5.38;;;26.60;93.00;;;;;;6207560;23;20028;-74
2023/08/15 12:25:05;;;;;;;5.93;4.18;;;26.70;92.90;;;;;;6207631;23;20004;-74
2023/08/15 12:27:31;;;;;;;7.13;4.00;;;26.80;92.90;;;;;;6207229;23;20000;-75
2023/08/15 12:29:56;;;;;;;11.40;4.18;;;26.90;92.80;;;;;;6209731;23;20450;-75
2023/08/15 12:32:22;;;;;;;10.93;5.35;;;26.90;92.60;;;;;;6209640;23;20410;-73
2023/08/15 12:34:47;;;;;;;8.20;4.05;;;26.90;92.50;;;;;;6210534;23;20028;-75
2023/08/15 12:37:13;;;;;;;8.27;4.32;;;26.80;92.30;;;;;;6210784;23;20378;-75
2023/08/15 12:39:39;;;;;;;8.35;4.43;;;26.70;92.40;;;;;;6209934;23;20419;-74
2023/08/15 12:42:06;;;;;;;9.45;4.63;;;26.60;92.60;;;;;;6210458;23;20080;-75